createdAt,value
2019-04-04T00:00:48.666Z,10.45
2019-04-04T00:03:16.631Z,10.50
2019-04-04T00:05:44.495Z,11.25
2019-04-04T00:08:12.253Z,11.18
2019-04-04T00:10:40.015Z,10.65
2019-04-04T00:13:10.865Z,11.48
2019-04-04T00:15:45.519Z,11.03
2019-04-04T00:18:20.550Z,11.10
2019-04-04T00:20:54.586Z,11.40
2019-04-04T00:23:29.469Z,11.53
2019-04-04T00:25:59.960Z,11.18
2019-04-04T00:28:36.762Z,12.00
2019-04-04T00:31:06.782Z,11.40
2019-04-04T00:33:34.951Z,11.85
2019-04-04T00:36:03.377Z,11.60
2019-04-04T00:38:31.804Z,11.10
2019-04-04T00:40:59.984Z,11.65
2019-04-04T00:43:36.756Z,11.63
2019-04-04T00:46:04.823Z,12.07
2019-04-04T00:48:39.762Z,12.03
2019-04-04T00:51:28.104Z,12.07
2019-04-04T00:53:56.689Z,11.63
2019-04-04T00:56:24.754Z,12.70
2019-04-04T00:58:54.263Z,11.75
2019-04-04T01:01:26.995Z,12.33
2019-04-04T01:03:56.956Z,13.08
2019-04-04T01:06:26.873Z,13.38
2019-04-04T01:08:54.739Z,12.82
2019-04-04T01:11:25.988Z,12.60
2019-04-04T01:14:02.300Z,14.10
2019-04-04T01:16:34.169Z,14.05
2019-04-04T01:19:02.380Z,13.62
2019-04-04T01:21:30.655Z,14.03
2019-04-04T01:23:59.013Z,13.50
2019-04-04T01:26:28.022Z,14.07
2019-04-04T01:28:56.097Z,13.22
2019-04-04T01:31:24.268Z,14.23
2019-04-04T01:34:01.459Z,13.43
2019-04-04T01:36:35.874Z,13.60
2019-04-04T01:41:53.930Z,14.98
2019-04-04T01:44:28.353Z,14.98
2019-04-04T01:46:56.320Z,15.78
2019-04-04T01:49:30.226Z,15.95
2019-04-04T01:52:00.943Z,15.83
2019-04-04T01:54:32.807Z,16.02
2019-04-04T01:57:01.812Z,15.50
2019-04-04T01:59:31.311Z,16.40
2019-04-04T02:01:59.995Z,16.20
2019-04-04T02:04:36.550Z,16.40
2019-04-04T02:07:06.175Z,15.20
2019-04-04T02:09:34.670Z,15.95
2019-04-04T02:12:02.528Z,16.95
2019-04-04T02:14:30.286Z,17.20
2019-04-04T02:16:58.045Z,16.87
2019-04-04T02:19:26.119Z,16.15
2019-04-04T02:21:55.429Z,16.32
2019-04-04T02:24:23.591Z,16.75
2019-04-04T02:26:51.257Z,16.85
2019-04-04T02:29:19.018Z,18.23
2019-04-04T02:31:54.720Z,16.97
2019-04-04T02:34:23.352Z,17.20
2019-04-04T02:36:51.219Z,17.80
2019-04-04T02:39:18.979Z,17.17
2019-04-04T02:41:48.362Z,18.25
2019-04-04T02:44:16.038Z,18.80
2019-04-04T02:46:45.501Z,18.20
2019-04-04T02:49:13.723Z,19.15
2019-04-04T02:51:41.638Z,18.70
2019-04-04T02:54:10.186Z,19.15
2019-04-04T02:56:38.142Z,18.95
2019-04-04T02:59:05.900Z,18.48
2019-04-04T03:01:37.180Z,21.35
2019-04-04T03:04:04.830Z,20.40
2019-04-04T03:06:32.882Z,18.02
2019-04-04T03:09:00.845Z,18.75
2019-04-04T03:11:28.712Z,20.10
2019-04-04T03:13:56.689Z,19.10
2019-04-04T03:16:24.451Z,19.57
2019-04-04T03:18:52.310Z,20.57
2019-04-04T03:21:23.482Z,20.65
2019-04-04T03:23:50.501Z,21.87
2019-04-04T03:26:20.040Z,21.12
2019-04-04T03:28:48.286Z,22.42
2019-04-04T03:31:16.046Z,21.25
2019-04-04T03:33:44.039Z,20.25
2019-04-04T03:36:12.188Z,22.05
2019-04-04T03:38:40.981Z,22.67
2019-04-04T03:41:08.941Z,22.42
2019-04-04T03:43:36.933Z,23.25
2019-04-04T03:46:04.904Z,22.20
2019-04-04T03:48:32.852Z,23.07
2019-04-04T03:51:04.687Z,23.32
2019-04-04T03:53:31.136Z,23.12
2019-04-04T03:56:01.191Z,23.42
2019-04-04T03:58:29.015Z,22.70
2019-04-04T04:00:57.507Z,23.85
2019-04-04T04:03:25.568Z,24.02
2019-04-04T04:05:53.537Z,24.35
2019-04-04T04:08:22.259Z,24.80
2019-04-04T04:10:50.093Z,22.87
2019-04-04T04:13:18.179Z,23.92
2019-04-04T04:15:46.174Z,25.35
2019-04-04T04:18:14.115Z,24.90
2019-04-04T04:20:42.004Z,25.68
2019-04-04T04:23:10.132Z,24.43
2019-04-04T04:25:38.310Z,24.15
2019-04-04T04:28:06.275Z,25.65
2019-04-04T04:30:39.288Z,25.62
2019-04-04T04:33:05.083Z,23.80
2019-04-04T04:35:33.170Z,23.25
2019-04-04T04:38:01.013Z,23.67
2019-04-04T04:40:28.985Z,23.38
2019-04-04T04:42:59.820Z,24.25
2019-04-04T04:45:26.563Z,24.07
2019-04-04T04:47:57.045Z,26.10
2019-04-04T04:50:24.548Z,24.65
2019-04-04T04:52:52.824Z,23.62
2019-04-04T04:55:21.094Z,26.57
2019-04-04T04:57:48.987Z,26.75
2019-04-04T05:00:18.060Z,24.98
2019-04-04T05:02:46.333Z,24.82
2019-04-04T05:05:14.709Z,25.17
2019-04-04T05:07:42.987Z,25.82
2019-04-04T05:10:10.955Z,25.43
2019-04-04T05:12:38.940Z,26.45
2019-04-04T05:15:06.995Z,26.57
2019-04-04T05:17:34.963Z,27.67
2019-04-04T05:20:05.180Z,26.75
2019-04-04T05:22:32.949Z,28.52
2019-04-04T05:25:07.929Z,26.10
2019-04-04T05:27:30.552Z,26.17
2019-04-04T05:29:58.610Z,26.35
2019-04-04T05:32:26.565Z,26.42
2019-04-04T05:34:54.545Z,25.08
2019-04-04T05:37:22.704Z,25.27
2019-04-04T05:39:51.534Z,22.62
2019-04-04T05:42:20.277Z,25.08
2019-04-04T05:44:48.258Z,26.00
2019-04-04T05:47:16.232Z,23.75
2019-04-04T05:49:44.209Z,23.80
2019-04-04T05:52:12.160Z,25.77
2019-04-04T05:54:40.702Z,23.52
2019-04-04T05:57:08.597Z,22.73
2019-04-04T05:59:36.571Z,22.65
2019-04-04T06:02:06.785Z,23.65
2019-04-04T06:04:34.558Z,23.70
2019-04-04T06:07:04.453Z,22.87
2019-04-04T06:09:31.931Z,25.30
2019-04-04T06:12:00.400Z,23.40
2019-04-04T06:14:30.091Z,23.20
2019-04-04T06:16:58.488Z,23.83
2019-04-04T06:19:26.353Z,23.57
2019-04-04T06:21:54.322Z,22.32
2019-04-04T06:24:22.295Z,21.02
2019-04-04T06:26:50.261Z,21.45
2019-04-04T06:29:18.434Z,22.22
2019-04-04T06:31:46.501Z,23.00
2019-04-04T06:34:14.374Z,23.85
2019-04-04T06:36:42.546Z,21.87
2019-04-04T06:39:10.815Z,23.67
2019-04-04T06:41:38.581Z,23.83
2019-04-04T06:44:06.763Z,26.55
2019-04-04T06:46:34.724Z,24.47
2019-04-04T06:49:04.397Z,22.02
2019-04-04T06:51:32.300Z,21.97
2019-04-04T06:54:01.029Z,23.73
2019-04-04T06:56:31.852Z,23.05
2019-04-04T06:58:58.287Z,23.83
2019-04-04T07:01:26.630Z,23.52
2019-04-04T07:03:54.190Z,22.30
2019-04-04T07:06:22.158Z,20.77
2019-04-04T07:08:50.123Z,20.15
2019-04-04T07:11:21.409Z,19.75
2019-04-04T07:13:48.115Z,20.45
2019-04-04T07:16:15.871Z,21.35
2019-04-04T07:18:43.851Z,21.42
2019-04-04T07:21:11.812Z,20.90
2019-04-04T07:23:41.862Z,22.07
2019-04-04T07:26:14.580Z,20.23
2019-04-04T07:28:39.404Z,22.52
2019-04-04T07:31:07.372Z,18.82
2019-04-04T07:33:37.694Z,17.40
2019-04-04T07:36:05.764Z,17.85
2019-04-04T07:38:35.104Z,17.80
2019-04-04T07:41:02.827Z,17.20
2019-04-04T07:43:30.934Z,17.05
2019-04-04T07:46:01.342Z,15.45
2019-04-04T07:48:28.622Z,16.93
2019-04-04T07:50:58.490Z,18.00
2019-04-04T07:53:28.351Z,16.93
2019-04-04T07:55:56.169Z,14.73
2019-04-04T07:58:24.156Z,14.90
2019-04-04T08:00:52.720Z,13.25
2019-04-04T08:03:21.411Z,13.25
2019-04-04T08:05:49.368Z,9.50
2019-04-04T08:08:17.342Z,10.23
2019-04-04T08:10:45.335Z,12.80
2019-04-04T08:13:13.478Z,11.00
2019-04-04T08:15:41.348Z,10.05
2019-04-04T08:18:09.417Z,10.78
2019-04-04T08:20:37.304Z,11.08
2019-04-04T08:23:05.458Z,10.80
2019-04-04T08:25:33.631Z,10.40
2019-04-04T08:28:01.395Z,10.43
2019-04-04T08:30:29.461Z,11.12
2019-04-04T08:32:57.445Z,11.38
2019-04-04T08:35:25.505Z,11.05
2019-04-04T08:37:53.429Z,10.32
2019-04-04T08:40:21.441Z,10.40
2019-04-04T08:42:49.510Z,11.48
2019-04-04T08:45:17.587Z,24.95
2019-04-04T08:47:45.551Z,9.60
2019-04-04T08:50:13.621Z,6.62
2019-04-04T08:52:41.997Z,5.42
2019-04-04T08:55:09.866Z,8.03
2019-04-04T08:57:37.932Z,7.75
2019-04-04T09:00:07.130Z,11.18
2019-04-04T09:02:35.409Z,10.50
2019-04-04T09:05:11.943Z,11.50
2019-04-04T09:07:34.418Z,12.78
2019-04-04T09:10:04.913Z,10.55
2019-04-04T09:12:32.509Z,11.75
2019-04-04T09:15:00.573Z,9.33
2019-04-04T09:17:28.545Z,9.83
2019-04-04T09:19:56.512Z,8.53
2019-04-04T09:22:24.480Z,9.38
2019-04-04T09:24:52.448Z,8.20
2019-04-04T09:27:20.532Z,8.75
2019-04-04T09:29:48.690Z,9.60
2019-04-04T09:32:16.658Z,9.28
2019-04-04T09:34:44.933Z,10.23
2019-04-04T09:37:12.902Z,9.00
2019-04-04T09:39:41.078Z,10.03
2019-04-04T09:42:10.082Z,10.98
2019-04-04T09:44:38.036Z,11.05
2019-04-04T09:47:06.046Z,11.28
2019-04-04T09:49:34.045Z,10.40
2019-04-04T09:52:02.170Z,11.57
2019-04-04T09:54:30.429Z,9.93
2019-04-04T09:56:58.394Z,10.08
2019-04-04T09:59:26.363Z,8.45
2019-04-04T10:01:54.739Z,8.20
2019-04-04T10:04:22.909Z,11.97
2019-04-04T10:06:50.880Z,10.90
2019-04-04T10:09:18.956Z,11.22
2019-04-04T10:11:46.920Z,9.58
2019-04-04T10:14:15.195Z,8.93
2019-04-04T10:16:43.166Z,8.98
2019-04-04T10:19:11.132Z,9.63
2019-04-04T10:21:38.999Z,8.68
2019-04-04T10:24:07.073Z,8.13
2019-04-04T10:26:34.936Z,7.95
2019-04-04T10:29:02.908Z,9.85
2019-04-04T10:31:30.972Z,10.10
2019-04-04T10:33:59.762Z,9.75
2019-04-04T10:36:27.829Z,10.65
2019-04-04T10:38:56.206Z,11.57
2019-04-04T10:41:25.012Z,10.45
2019-04-04T10:43:53.174Z,9.13
2019-04-04T10:46:21.244Z,10.25
2019-04-04T10:48:49.207Z,8.88
2019-04-04T10:51:17.281Z,8.33
2019-04-04T10:53:45.874Z,8.10
2019-04-04T10:56:13.934Z,8.93
2019-04-04T10:58:42.008Z,7.28
2019-04-04T11:01:10.959Z,7.33
2019-04-04T11:03:39.272Z,8.00
2019-04-04T11:06:07.238Z,8.38
2019-04-04T11:08:35.206Z,9.05
2019-04-04T11:11:03.187Z,9.15
2019-04-04T11:13:34.206Z,9.65
2019-04-04T11:16:03.437Z,10.50
2019-04-04T11:18:31.082Z,10.55
2019-04-04T11:21:00.287Z,10.80
2019-04-04T11:23:28.343Z,11.22
2019-04-04T11:25:56.519Z,9.93
2019-04-04T11:28:24.592Z,9.30
2019-04-04T11:30:52.660Z,9.38
2019-04-04T11:33:20.828Z,11.00
2019-04-04T11:35:48.905Z,11.18
2019-04-04T11:38:16.870Z,11.33
2019-04-04T11:40:44.841Z,9.90
2019-04-04T11:43:12.909Z,10.45
2019-04-04T11:45:40.879Z,11.18
2019-04-04T11:48:08.843Z,10.98
2019-04-04T11:50:39.615Z,9.60
2019-04-04T11:53:06.834Z,8.58
2019-04-04T11:55:35.109Z,7.12
2019-04-04T11:58:02.873Z,8.90
2019-04-04T12:00:32.894Z,8.43
2019-04-04T12:03:01.482Z,8.85
2019-04-04T12:05:29.131Z,8.20
2019-04-04T12:07:57.214Z,8.65
2019-04-04T12:10:25.172Z,7.95
2019-04-04T12:12:52.727Z,8.70
2019-04-04T12:15:21.418Z,8.25
2019-04-04T12:17:50.307Z,8.58
2019-04-04T12:20:18.272Z,8.58
2019-04-04T12:22:46.356Z,8.50
2019-04-04T12:25:14.240Z,9.60
2019-04-04T12:27:42.289Z,8.05
2019-04-04T12:30:11.173Z,7.78
2019-04-04T12:32:39.241Z,7.87
2019-04-04T12:35:08.435Z,9.48
2019-04-04T12:37:36.409Z,8.63
2019-04-04T12:40:05.501Z,7.25
2019-04-04T12:42:33.263Z,6.90
2019-04-04T12:45:01.235Z,6.65
2019-04-04T12:47:30.435Z,7.25
2019-04-04T12:49:58.504Z,7.03
2019-04-04T12:52:26.783Z,8.10
2019-04-04T12:54:54.948Z,7.17
2019-04-04T12:57:22.522Z,8.88
2019-04-04T12:59:50.591Z,7.92
2019-04-04T13:02:19.262Z,7.53
2019-04-04T13:04:47.362Z,8.18
2019-04-04T13:07:15.709Z,8.48
2019-04-04T13:09:43.883Z,14.10
2019-04-04T13:12:11.952Z,6.20
2019-04-04T13:14:42.483Z,7.25
2019-04-04T13:17:10.553Z,7.42
2019-04-04T13:19:38.523Z,8.23
2019-04-04T13:22:06.510Z,7.90
2019-04-04T13:24:34.462Z,8.50
2019-04-04T13:27:04.371Z,6.15
2019-04-04T13:29:32.344Z,6.78
2019-04-04T13:32:00.310Z,6.85
2019-04-04T13:34:28.283Z,6.05
2019-04-04T13:36:56.244Z,7.47
2019-04-04T13:39:24.317Z,7.53
2019-04-04T13:41:52.080Z,7.00
2019-04-04T13:44:21.401Z,6.45
2019-04-04T13:46:49.655Z,6.85
2019-04-04T13:49:18.699Z,6.45
2019-04-04T13:51:47.036Z,7.90
2019-04-04T13:54:15.309Z,7.78
2019-04-04T13:56:43.279Z,9.20
2019-04-04T13:59:11.241Z,6.65
2019-04-04T14:01:42.724Z,6.97
2019-04-04T14:04:09.538Z,7.67
2019-04-04T14:06:37.496Z,8.18
2019-04-04T14:09:07.685Z,10.43
2019-04-04T14:11:35.289Z,11.25
2019-04-04T14:14:03.468Z,12.50
2019-04-04T14:16:31.656Z,11.30
2019-04-04T14:18:59.796Z,9.68
2019-04-04T14:21:27.763Z,10.23
2019-04-04T14:23:56.982Z,11.93
2019-04-04T14:26:25.035Z,11.35
2019-04-04T14:28:53.004Z,11.15
2019-04-04T14:31:20.971Z,9.88
2019-04-04T14:33:49.252Z,10.18
2019-04-04T14:36:17.313Z,11.25
2019-04-04T14:38:45.399Z,11.78
2019-04-04T14:41:13.158Z,9.08
2019-04-04T14:43:41.124Z,9.83
2019-04-04T14:46:09.087Z,10.10
2019-04-04T14:48:37.468Z,11.30
2019-04-04T14:51:05.550Z,9.73
2019-04-04T14:53:34.017Z,11.78
2019-04-04T14:56:01.889Z,12.05
2019-04-04T14:58:30.844Z,10.32
2019-04-04T15:00:59.466Z,9.58
2019-04-04T15:03:27.224Z,11.97
2019-04-04T15:05:55.195Z,9.65
2019-04-04T15:08:23.060Z,10.68
2019-04-04T15:10:50.968Z,11.18
2019-04-04T15:13:18.998Z,12.82
2019-04-04T15:16:12.474Z,11.40
2019-04-04T15:18:42.886Z,11.55
2019-04-04T15:21:10.793Z,11.90
2019-04-04T15:23:38.948Z,14.47
2019-04-04T15:26:09.672Z,7.78
2019-04-04T15:28:36.512Z,8.00
2019-04-04T15:31:04.569Z,6.65
2019-04-04T15:33:33.022Z,6.40
2019-04-04T15:36:01.124Z,10.40
2019-04-04T15:38:29.196Z,6.83
2019-04-04T15:40:57.162Z,6.72
2019-04-04T15:43:25.133Z,8.00
2019-04-04T15:45:53.201Z,8.75
2019-04-04T15:48:21.273Z,9.45
2019-04-04T15:50:49.352Z,8.08
2019-04-04T15:53:17.724Z,9.75
2019-04-04T15:55:45.922Z,11.93
2019-04-04T15:58:14.439Z,11.60
2019-04-04T16:00:42.853Z,9.98
2019-04-04T16:03:11.055Z,11.75
2019-04-04T16:05:38.990Z,11.08
2019-04-04T16:08:06.962Z,11.70
2019-04-04T16:10:35.237Z,12.55
2019-04-04T16:13:03.218Z,12.98
2019-04-04T16:15:32.298Z,21.73
2019-04-04T16:18:01.427Z,12.75
2019-04-04T16:20:29.612Z,12.55
2019-04-04T16:22:59.176Z,13.50
2019-04-04T16:25:27.875Z,15.30
2019-04-04T16:27:55.829Z,14.40
2019-04-04T16:30:24.127Z,13.72
2019-04-04T16:32:52.078Z,10.90
2019-04-04T16:35:21.993Z,13.55
2019-04-04T16:37:50.061Z,11.45
2019-04-04T16:40:17.929Z,12.53
2019-04-04T16:42:46.357Z,12.35
2019-04-04T16:45:14.584Z,12.78
2019-04-04T16:47:42.854Z,12.33
2019-04-04T16:50:10.839Z,13.88
2019-04-04T16:52:39.408Z,14.98
2019-04-04T16:55:07.593Z,17.05
2019-04-04T16:57:35.550Z,17.60
2019-04-04T17:00:05.877Z,19.57
2019-04-04T17:02:33.938Z,23.45
2019-04-04T17:05:02.112Z,20.85
2019-04-04T17:07:30.286Z,19.87
2019-04-04T17:09:59.174Z,20.50
2019-04-04T17:12:27.458Z,20.88
2019-04-04T17:14:56.161Z,22.10
2019-04-04T17:17:24.121Z,25.75
2019-04-04T17:19:52.185Z,27.42
2019-04-04T17:22:20.143Z,30.37
2019-04-04T17:24:48.313Z,28.45
2019-04-04T17:27:16.841Z,27.05
2019-04-04T17:29:46.530Z,29.35
2019-04-04T17:32:15.625Z,29.40
2019-04-04T17:34:44.253Z,33.48
2019-04-04T17:37:12.833Z,35.65
2019-04-04T17:39:40.937Z,38.92
2019-04-04T17:42:09.562Z,39.60
2019-04-04T17:44:37.390Z,42.83
2019-04-04T17:47:05.464Z,41.10
2019-04-04T17:49:33.994Z,39.25
2019-04-04T17:52:02.211Z,39.55
2019-04-04T17:54:30.704Z,38.85
2019-04-04T17:56:58.356Z,39.53
2019-04-04T17:59:26.325Z,38.98
2019-04-04T18:01:55.107Z,49.67
2019-04-04T18:04:22.986Z,43.68
2019-04-04T18:06:51.052Z,44.80
2019-04-04T18:09:30.929Z,42.00
2019-04-04T18:11:48.728Z,41.00
2019-04-04T18:14:16.801Z,41.63
2019-04-04T18:16:44.665Z,40.52
2019-04-04T18:19:12.632Z,49.75
2019-04-04T18:21:40.601Z,49.20
2019-04-04T18:24:08.579Z,48.23
2019-04-04T18:26:36.740Z,49.35
2019-04-04T18:29:04.713Z,44.63
2019-04-04T18:31:32.675Z,47.35
2019-04-04T18:34:00.912Z,36.42
2019-04-04T18:36:29.017Z,32.98
2019-04-04T18:38:57.311Z,32.93
2019-04-04T18:41:25.374Z,26.02
2019-04-04T18:43:53.338Z,48.58
2019-04-04T18:46:21.309Z,29.18
2019-04-04T18:48:49.276Z,25.00
2019-04-04T18:51:20.420Z,26.10
2019-04-04T18:53:49.441Z,28.80
2019-04-04T18:56:17.375Z,33.80
2019-04-04T18:58:45.325Z,27.42
2019-04-04T19:01:13.830Z,29.52
2019-04-04T19:03:41.901Z,44.20
2019-04-04T19:06:09.887Z,23.40
2019-04-04T19:08:38.036Z,22.00
2019-04-04T19:11:05.910Z,25.48
2019-04-04T19:13:43.743Z,25.55
2019-04-04T19:16:03.788Z,23.42
2019-04-04T19:18:31.758Z,19.10
2019-04-04T19:20:59.732Z,28.25
2019-04-04T19:23:27.874Z,22.75
2019-04-04T19:25:55.665Z,50.85
2019-04-04T19:28:23.635Z,75.17
2019-04-04T19:30:51.499Z,34.88
2019-04-04T19:33:19.461Z,35.30
2019-04-04T19:35:47.636Z,28.00
2019-04-04T19:38:15.714Z,29.37
2019-04-04T19:40:43.480Z,25.30
2019-04-04T19:43:17.946Z,23.75
2019-04-04T19:45:42.312Z,23.50
2019-04-04T19:48:10.242Z,21.52
2019-04-04T19:50:39.318Z,23.20
2019-04-04T19:53:07.507Z,21.90
2019-04-04T19:55:35.374Z,20.12
2019-04-04T19:58:03.453Z,24.50
2019-04-04T20:00:32.161Z,27.10
2019-04-04T20:03:01.750Z,27.17
2019-04-04T20:05:29.812Z,27.62
2019-04-04T20:07:58.597Z,27.62
2019-04-04T20:10:26.569Z,29.10
2019-04-04T20:12:54.533Z,30.62
2019-04-04T20:15:23.223Z,31.12
2019-04-04T20:17:51.184Z,33.65
2019-04-04T20:20:19.981Z,35.38
2019-04-04T20:22:48.043Z,30.00
2019-04-04T20:25:16.012Z,31.42
2019-04-04T20:27:54.041Z,29.10
2019-04-04T20:30:14.421Z,28.77
2019-04-04T20:32:42.693Z,28.67
2019-04-04T20:35:10.871Z,30.90
2019-04-04T20:37:38.828Z,27.80
2019-04-04T20:40:06.901Z,28.67
2019-04-04T20:42:34.771Z,29.12
2019-04-04T20:45:04.164Z,27.73
2019-04-04T20:47:33.815Z,25.75
2019-04-04T20:50:01.768Z,26.05
2019-04-04T20:52:30.013Z,24.35
2019-04-04T20:54:58.907Z,24.85
2019-04-04T20:57:26.571Z,24.35
2019-04-04T20:59:54.538Z,23.73
2019-04-04T21:02:23.017Z,24.07
2019-04-04T21:04:51.091Z,23.85
2019-04-04T21:07:19.170Z,24.67
2019-04-04T21:09:47.122Z,23.85
2019-04-04T21:12:15.114Z,24.30
2019-04-04T21:14:43.064Z,26.55
2019-04-04T21:17:11.758Z,27.55
2019-04-04T21:19:39.716Z,24.32
2019-04-04T21:22:07.582Z,22.58
2019-04-04T21:24:37.190Z,23.57
2019-04-04T21:27:05.158Z,22.75
2019-04-04T21:29:33.124Z,22.62
2019-04-04T21:32:01.100Z,22.67
2019-04-04T21:34:29.263Z,22.00
2019-04-04T21:36:57.441Z,24.85
2019-04-04T21:39:25.717Z,27.60
2019-04-04T21:41:53.581Z,29.12
2019-04-04T21:44:21.550Z,30.32
2019-04-04T21:46:49.620Z,31.97
2019-04-04T21:49:17.591Z,25.30
2019-04-04T21:51:45.559Z,26.57
2019-04-04T21:54:13.837Z,22.55
2019-04-04T21:56:41.967Z,25.08
2019-04-04T21:59:10.073Z,23.50
2019-04-04T22:01:38.758Z,23.07
2019-04-04T22:04:06.831Z,24.45
2019-04-04T22:06:34.903Z,24.52
2019-04-04T22:09:07.144Z,24.72
2019-04-04T22:11:35.549Z,25.17
2019-04-04T22:14:03.519Z,24.65
2019-04-04T22:16:31.587Z,21.85
2019-04-04T22:18:59.557Z,24.10
2019-04-04T22:21:27.675Z,23.65
2019-04-04T22:23:55.694Z,23.57
2019-04-04T22:26:23.783Z,22.20
2019-04-04T22:28:51.740Z,19.73
2019-04-04T22:31:19.706Z,19.85
2019-04-04T22:33:47.671Z,20.17
2019-04-04T22:36:19.953Z,20.90
2019-04-04T22:38:48.727Z,19.35
2019-04-04T22:41:16.695Z,18.32
2019-04-04T22:43:44.667Z,18.98
2019-04-04T22:46:12.740Z,20.35
2019-04-04T22:48:40.818Z,19.62
2019-04-04T22:51:08.879Z,19.37
2019-04-04T22:53:37.051Z,18.70
2019-04-04T22:56:05.227Z,18.60
2019-04-04T22:58:33.459Z,19.02
2019-04-04T23:01:01.981Z,19.92
2019-04-04T23:03:29.749Z,19.70
2019-04-04T23:05:57.916Z,20.62
2019-04-04T23:08:25.783Z,24.25
2019-04-04T23:10:53.752Z,19.60
2019-04-04T23:13:21.618Z,21.90
2019-04-04T23:15:49.283Z,19.85
2019-04-04T23:18:17.041Z,20.40
2019-04-04T23:20:44.813Z,21.30
2019-04-04T23:23:12.568Z,20.80
2019-04-04T23:25:40.440Z,20.62
2019-04-04T23:28:08.099Z,20.37
2019-04-04T23:30:35.963Z,20.02
2019-04-04T23:33:03.730Z,21.70
2019-04-04T23:35:31.807Z,21.62
2019-04-04T23:37:59.866Z,21.17
2019-04-04T23:40:27.633Z,22.42
2019-04-04T23:42:55.392Z,23.20
2019-04-04T23:45:23.156Z,21.85
2019-04-04T23:47:50.924Z,22.95
2019-04-04T23:50:18.687Z,24.20
2019-04-04T23:52:46.990Z,23.92
2019-04-04T23:55:14.831Z,27.60
2019-04-04T23:57:42.591Z,31.07
